»·PEaware :: AAL824 KEGE-KLAS

AAL824 :: KEGE-KLAS

FLIGHT INFORMATION

Flight Status: Arrived
Operator:
American Airlines
More flights by this operator :: More flights under this callsign
Pilot: Andrew S. (20703)
Aircraft: BOEING 737-800
(B738)
More flights by this aircraft type
Origin: KEGE Eagle Co Regl
United States
Destination: KLAS McCarran Intl
United States
More flights between these airports :: More routes between these airports
Route: +BEVVR1 SPRKT JNC HVE GGAPP SITEE4
File this flight plan on PilotEdge
Remarks: RMK / SIMBRIEF
Altitude:
(Current/Filed)
36,000ft
Speed:
(Current/Filed)
446kts
Departed: 15-May-19 06:59 PM
Arrived: 15-May-19 08:20 PM
Distance/Time
Traveled:
444nm/1:21
Distance/Time
To Go:
Arrived

Flight Plot

Page will automatically refresh every two minutes.

Flight plan parsing failed; only flown route is shown


Map Options




Map Legend


Flown Route
Filed Route
Departure Airport
Arrival Airport
Navaid (VOR, NDB)
Fix

Horizontal Profiles

Position Reports

Time Latitude Longitude Heading Altitude Ground
Speed
15-May-19 18:20 39.640677 -106.912875 171 6554ft 0kts
15-May-19 18:21 39.640677 -106.912875 171 6554ft 0kts
15-May-19 18:22 39.640677 -106.912875 171 6554ft 0kts
15-May-19 18:23 39.640677 -106.912875 171 6554ft 0kts
15-May-19 18:24 39.640677 -106.912875 171 6554ft 0kts
15-May-19 18:25 39.640677 -106.912875 171 6554ft 0kts
15-May-19 18:26 39.640677 -106.912875 171 6554ft 0kts
15-May-19 18:27 39.640677 -106.912875 171 6554ft 0kts
15-May-19 18:28 39.640677 -106.912875 171 6554ft 0kts
15-May-19 18:29 39.640677 -106.912875 171 6554ft 0kts
15-May-19 18:30 39.640677 -106.912875 171 6554ft 0kts
15-May-19 18:31 39.640677 -106.912875 171 6554ft 0kts
15-May-19 18:32 39.640677 -106.912875 171 6554ft 0kts
15-May-19 18:33 39.640677 -106.912875 171 6554ft 0kts
15-May-19 18:34 39.640677 -106.912875 171 6554ft 0kts
15-May-19 18:35 39.640677 -106.912875 171 6554ft 0kts
15-May-19 18:36 39.640677 -106.912875 171 6554ft 0kts
15-May-19 18:37 39.640677 -106.912875 171 6554ft 0kts
15-May-19 18:38 39.640677 -106.912875 171 6554ft 0kts
15-May-19 18:39 39.640677 -106.912875 171 6554ft 0kts
15-May-19 18:39 39.640677 -106.912875 171 6554ft 0kts
15-May-19 18:41 39.640677 -106.912875 171 6554ft 0kts
15-May-19 18:42 39.640677 -106.912875 171 6554ft 0kts
15-May-19 18:42 39.640677 -106.912875 171 6554ft 0kts
15-May-19 18:44 39.640677 -106.912875 171 6554ft 0kts
15-May-19 18:44 39.640677 -106.912875 171 6554ft 0kts
15-May-19 18:45 39.640677 -106.912875 171 6554ft 0kts
15-May-19 18:46 39.640677 -106.912875 171 6554ft 0kts
15-May-19 18:47 39.640677 -106.912875 171 6554ft 0kts
15-May-19 18:49 39.640529 -106.912531 67 6554ft 0kts
15-May-19 18:49 39.640529 -106.912530 67 6554ft 0kts
15-May-19 18:50 39.642288 -106.910157 82 6554ft 14kts
15-May-19 18:51 39.642982 -106.903549 83 6554ft 23kts
15-May-19 18:52 39.643203 -106.901315 80 6554ft 0kts
15-May-19 18:53 39.643203 -106.901315 80 6554ft 0kts
15-May-19 18:54 39.643203 -106.901315 80 6554ft 0kts
15-May-19 18:55 39.643203 -106.901315 80 6554ft 0kts
15-May-19 18:56 39.643203 -106.901315 80 6554ft 0kts
15-May-19 18:57 39.644432 -106.900614 269 6554ft 12kts
15-May-19 18:58 39.642359 -106.919813 260 6554ft 152kts
15-May-19 18:59 39.619797 -106.965220 199 8594ft 162kts
15-May-19 19:00 39.583588 -107.013292 251 10487ft 199kts
15-May-19 19:01 39.599607 -107.093275 311 12396ft 273kts
15-May-19 19:02 39.673758 -107.120053 8 15341ft 304kts
15-May-19 19:03 39.762063 -107.143183 312 16839ft 353kts
15-May-19 19:04 39.816578 -107.250038 300 19921ft 361kts
15-May-19 19:05 39.873664 -107.360357 301 22109ft 376kts
15-May-19 19:06 39.932750 -107.476758 291 23933ft 387kts
15-May-19 19:07 39.911880 -107.605769 230 25573ft 388kts
15-May-19 19:08 39.838108 -107.710617 227 27159ft 398kts
15-May-19 19:09 39.761675 -107.818267 228 28618ft 408kts
15-May-19 19:10 39.683331 -107.928368 228 29943ft 418kts
15-May-19 19:11 39.603319 -108.040489 228 31190ft 425kts
15-May-19 19:12 39.522602 -108.153218 228 32649ft 424kts
15-May-19 19:13 39.442461 -108.264772 228 33941ft 421kts
15-May-19 19:14 39.362205 -108.376109 228 35035ft 420kts
15-May-19 19:15 39.281862 -108.487192 228 35911ft 421kts
15-May-19 19:16 39.199589 -108.600566 228 35935ft 437kts
15-May-19 19:17 39.117467 -108.713247 227 35939ft 437kts
15-May-19 19:18 39.044515 -108.837286 245 35944ft 435kts
15-May-19 19:19 38.997214 -108.981626 247 35938ft 434kts
15-May-19 19:20 38.950532 -109.123953 246 35919ft 423kts
15-May-19 19:21 38.904644 -109.262966 245 35906ft 418kts
15-May-19 19:22 38.858809 -109.401096 245 35909ft 415kts
15-May-19 19:23 38.813150 -109.538019 245 35911ft 417kts
15-May-19 19:24 38.767385 -109.674599 244 35916ft 416kts
15-May-19 19:25 38.721364 -109.810996 244 35915ft 416kts
15-May-19 19:26 38.675158 -109.947400 244 35914ft 417kts
15-May-19 19:27 38.628800 -110.083682 244 35913ft 416kts
15-May-19 19:28 38.582226 -110.219938 244 35913ft 418kts
15-May-19 19:29 38.535620 -110.355722 244 35909ft 416kts
15-May-19 19:30 38.488873 -110.491285 244 35908ft 416kts
15-May-19 19:31 38.441868 -110.627040 244 35906ft 416kts
15-May-19 19:32 38.384611 -110.754204 231 35870ft 415kts
15-May-19 19:33 38.313928 -110.870788 231 35807ft 415kts
15-May-19 19:34 38.243528 -110.986521 231 35802ft 411kts
15-May-19 19:35 38.173677 -111.101069 232 35804ft 407kts
15-May-19 19:36 38.103888 -111.215158 232 35798ft 406kts
15-May-19 19:37 38.034080 -111.328912 232 35819ft 407kts
15-May-19 19:38 37.964672 -111.441626 232 35928ft 406kts
15-May-19 19:39 37.895567 -111.553501 232 36044ft 405kts
15-May-19 19:40 37.826322 -111.665275 231 36104ft 405kts
15-May-19 19:41 37.756597 -111.777211 231 36105ft 405kts
15-May-19 19:42 37.686497 -111.889504 231 36101ft 405kts
15-May-19 19:43 37.616526 -112.001249 231 36100ft 404kts
15-May-19 19:44 37.546074 -112.113479 231 34992ft 413kts
15-May-19 19:45 37.484912 -112.234770 238 31976ft 408kts
15-May-19 19:46 37.426744 -112.356408 237 29089ft 399kts
15-May-19 19:47 37.371097 -112.472196 237 27053ft 381kts
15-May-19 19:48 37.315572 -112.587258 237 25025ft 388kts
15-May-19 19:49 37.259558 -112.702865 236 24090ft 393kts
15-May-19 19:50 37.201894 -112.821365 236 23990ft 396kts
15-May-19 19:51 37.144282 -112.939446 236 23879ft 393kts
15-May-19 19:52 37.087220 -113.056066 235 23853ft 391kts
15-May-19 19:53 37.030968 -113.170743 235 22887ft 365kts
15-May-19 19:54 36.980846 -113.272675 234 21817ft 323kts
15-May-19 19:55 36.933276 -113.368908 234 20764ft 322kts
15-May-19 19:56 36.886373 -113.463549 234 19730ft 318kts
15-May-19 19:57 36.839610 -113.557657 234 18731ft 314kts
15-May-19 19:58 36.793723 -113.649759 234 17737ft 310kts
15-May-19 19:59 36.748023 -113.741075 233 16751ft 307kts
15-May-19 20:00 36.702712 -113.831428 233 16072ft 304kts
15-May-19 20:01 36.657732 -113.920897 233 16070ft 304kts
15-May-19 20:02 36.612409 -114.010858 233 16069ft 304kts
15-May-19 20:03 36.567001 -114.100679 233 15868ft 307kts
15-May-19 20:04 36.521827 -114.189218 233 14864ft 300kts
15-May-19 20:05 36.477114 -114.276588 233 13856ft 297kts
15-May-19 20:06 36.432577 -114.363401 233 12841ft 294kts
15-May-19 20:07 36.389200 -114.447784 233 12010ft 284kts
15-May-19 20:08 36.347224 -114.529399 233 11472ft 267kts
15-May-19 20:09 36.304843 -114.610710 228 10335ft 279kts
15-May-19 20:10 36.243137 -114.653404 198 9598ft 243kts
15-May-19 20:11 36.175472 -114.682757 198 8481ft 259kts
15-May-19 20:12 36.108745 -114.711792 202 7393ft 246kts
15-May-19 20:13 36.072074 -114.782175 263 6338ft 270kts
15-May-19 20:14 36.073117 -114.874952 266 4996ft 244kts
15-May-19 20:15 36.073829 -114.957224 269 4125ft 229kts
15-May-19 20:16 36.076466 -115.023601 264 3459ft 178kts
15-May-19 20:17 36.074685 -115.080323 260 2770ft 148kts
15-May-19 20:18 36.073649 -115.130289 267 2191ft 138kts
15-May-19 20:19 36.074815 -115.146032 301 2189ft 0kts
15-May-19 20:20 36.076714 -115.146584 359 2189ft 32kts

Navigation Log

Ident Type
Flight plan parsing failed, navigation log unavailable